Lexington, Michigan
Current Conditions -  °F | °C
As of 9:11 AM on Monday 20 Oct 2014 (Local Time) from CYZR Reporting Station
Overcast Overcast  
Wind Chill: 44°   Ceiling: 4900
Heat Index: 48°   Visibility: 9mi
Dew Point: 45°   Wind: 9mph
Humidity: 87%   Direction: 200°SSW
Pressure: 29.85"   Gusts: NA
Location:  43.27°N, 82.53°W
Report Text: CYZR 201311Z AUTO 20008KT 9SM OVC049 09/07 A2985 RMK SLP110
Loading
Personal Weather Stations






























Interactive Weather Map New forecast layout! Learn more

10-Day Weather Forecast

Advertisements
Track Severe Weather on mobile